Time;durP1;ratioP1;P1;durP2;ratioP2;P2;SDS_P1;SDS_P2;PMS_P1;PMS_P2;Temp;Humidity;BMP_temperature;BMP_pressure;BME280_temperature;BME280_humidity;BME280_pressure;Samples;Min_cycle;Max_cycle;Signal;HPM_P1;HPM_P2
2022/04/27 00:00:21;;;;;;;8.57;2.75;;;;;;;7.71;70.01;100815.94;5097711;28;20028;-76
2022/04/27 00:02:47;;;;;;;6.57;2.63;;;;;;;7.70;69.99;100817.00;5097897;28;20043;-76
2022/04/27 00:05:12;;;;;;;7.07;3.00;;;;;;;7.75;69.93;100818.09;5079291;28;20040;-77
2022/04/27 00:07:37;;;;;;;6.27;2.60;;;;;;;7.70;70.07;100819.66;5098191;28;20298;-77
2022/04/27 00:10:05;;;;;;;4.55;2.30;;;;;;;7.58;70.54;100822.72;5101085;28;20039;-77
2022/04/27 00:12:31;;;;;;;4.88;2.28;;;;;;;7.63;70.47;100819.53;5100825;28;20118;-77
2022/04/27 00:14:56;;;;;;;7.55;2.67;;;;;;;7.63;70.34;100820.38;5100632;28;20636;-77
2022/04/27 00:17:22;;;;;;;5.87;2.70;;;;;;;7.56;70.45;100816.69;5100021;28;20039;-77
2022/04/27 00:19:47;;;;;;;6.00;2.33;;;;;;;7.45;70.89;100816.28;5100207;28;20033;-76
2022/04/27 00:22:13;;;;;;;4.60;2.57;;;;;;;7.47;71.02;100819.63;5098652;28;20107;-76
2022/04/27 00:24:39;;;;;;;6.75;2.45;;;;;;;7.58;70.84;100819.22;5096966;28;20016;-76
2022/04/27 00:27:05;;;;;;;5.78;2.10;;;;;;;7.50;70.72;100817.44;5097459;28;20032;-76
2022/04/27 00:29:30;;;;;;;;;;;;;;;7.50;70.65;100825.47;5099058;28;20032;-77
2022/04/27 00:31:56;;;;;;;5.93;3.05;;;;;;;7.45;70.53;100830.50;5083455;28;20315;-76
2022/04/27 00:34:21;;;;;;;6.88;2.80;;;;;;;7.52;70.65;100820.78;5098767;28;20039;-76
2022/04/27 00:36:46;;;;;;;5.47;2.37;;;;;;;7.42;70.81;100828.19;5082801;28;20118;-77
2022/04/27 00:39:12;;;;;;;6.17;2.43;;;;;;;7.40;71.20;100829.34;5101446;28;20052;-77
2022/04/27 00:41:38;;;;;;;4.88;2.42;;;;;;;7.41;71.02;100825.66;5098817;28;20028;-76
2022/04/27 00:44:03;;;;;;;5.60;2.75;;;;;;;7.35;70.97;100823.66;5096472;28;20043;-76
2022/04/27 00:46:28;;;;;;;5.53;2.42;;;;;;;7.35;71.02;100819.16;5101216;28;20147;-76
2022/04/27 00:48:54;;;;;;;9.33;2.90;;;;;;;7.30;71.43;100814.34;5100849;28;20032;-77
2022/04/27 00:51:22;;;;;;;9.52;2.60;;;;;;;7.26;71.46;100823.72;5100568;28;20095;-77
2022/04/27 00:53:51;;;;;;;6.03;2.22;;;;;;;7.17;71.78;100819.38;5100810;28;20085;-77
2022/04/27 00:56:21;;;;;;;5.55;2.55;;;;;;;7.15;72.01;100823.28;5100159;28;20035;-77
2022/04/27 00:58:47;;;;;;;5.38;2.33;;;;;;;7.09;72.08;100824.78;5099751;28;20034;-78
2022/04/27 01:01:13;;;;;;;6.70;2.65;;;;;;;7.11;72.16;100828.13;5081415;28;20039;-77
2022/04/27 01:03:38;;;;;;;5.45;2.65;;;;;;;7.08;73.08;100827.63;5096838;28;20032;-77
2022/04/27 01:06:04;;;;;;;8.50;2.90;;;;;;;7.06;72.55;100829.66;5097669;28;20039;-77
2022/04/27 01:08:30;;;;;;;6.50;2.75;;;;;;;6.99;73.28;100824.13;5096035;28;20020;-77
2022/04/27 01:10:59;;;;;;;6.32;2.80;;;;;;;7.02;73.22;100828.31;5095941;28;20394;-76
2022/04/27 01:13:27;;;;;;;9.70;3.20;;;;;;;6.98;72.91;100830.53;5096399;28;20061;-76
2022/04/27 01:15:52;;;;;;;6.38;2.88;;;;;;;6.94;73.07;100829.19;5096048;28;20035;-77
2022/04/27 01:18:18;;;;;;;9.48;3.25;;;;;;;6.91;73.01;100830.38;5095897;28;20568;-76
2022/04/27 01:20:44;;;;;;;8.00;2.83;;;;;;;6.92;72.98;100832.03;5096155;28;20459;-76
2022/04/27 01:23:11;;;;;;;9.82;3.28;;;;;;;6.89;73.42;100835.06;5095911;28;20113;-77
2022/04/27 01:25:51;;;;;;;7.75;2.72;;;;;;;6.92;72.83;100828.53;5095659;28;20027;-77
2022/04/27 01:28:19;;;;;;;8.07;3.28;;;;;;;6.83;73.60;100833.03;5095929;28;20028;-76
2022/04/27 01:30:44;;;;;;;5.57;2.85;;;;;;;6.85;73.27;100831.03;5095898;28;20032;-77
2022/04/27 01:33:11;;;;;;;5.68;2.60;;;;;;;6.86;73.42;100835.41;5095424;28;20039;-77
2022/04/27 01:35:37;;;;;;;5.70;2.50;;;;;;;6.83;73.48;100845.59;5076859;28;20032;-77
2022/04/27 01:38:03;;;;;;;4.45;2.00;;;;;;;6.97;72.70;100848.44;5076917;28;20028;-76
2022/04/27 01:40:29;;;;;;;7.03;2.33;;;;;;;6.88;73.02;100849.47;5094944;28;20039;-76
2022/04/27 01:42:54;;;;;;;10.10;3.13;;;;;;;6.87;73.62;100847.78;5094216;28;20032;-76
2022/04/27 01:45:19;;;;;;;5.77;2.70;;;;;;;6.85;73.41;100841.75;5094238;28;20105;-76
2022/04/27 01:47:44;;;;;;;14.43;3.67;;;;;;;6.89;73.52;100850.28;5094029;28;20201;-76
2022/04/27 01:50:10;;;;;;;7.37;3.13;;;;;;;6.78;74.07;100847.97;5094439;28;20032;-76
2022/04/27 01:55:19;;;;;;;7.28;2.60;;;;;;;6.73;73.89;100855.69;5093855;28;20043;-76
2022/04/27 01:57:45;;;;;;;6.40;2.90;;;;;;;6.71;74.13;100863.88;5093789;28;20036;-76
2022/04/27 02:00:11;;;;;;;7.15;3.03;;;;;;;6.72;74.52;100867.41;5094100;28;20028;-76
2022/04/27 02:02:36;;;;;;;6.38;2.90;;;;;;;6.70;74.35;100866.72;5094045;28;20040;-76
2022/04/27 02:05:04;;;;;;;5.90;2.57;;;;;;;6.76;74.45;100869.56;5075532;28;20390;-76
2022/04/27 02:07:30;;;;;;;6.18;2.65;;;;;;;6.68;73.54;100874.94;5094544;28;20035;-76
2022/04/27 02:09:55;;;;;;;7.97;2.80;;;;;;;6.57;74.42;100876.13;5094019;28;20031;-76
2022/04/27 02:12:20;;;;;;;5.50;2.60;;;;;;;6.51;74.37;100868.75;5094146;28;20028;-76
2022/04/27 02:14:45;;;;;;;7.07;3.17;;;;;;;6.53;74.48;100876.59;5093660;28;20398;-76
2022/04/27 02:17:11;;;;;;;7.97;2.57;;;;;;;6.49;75.49;100878.78;5075635;28;20027;-76
2022/04/27 02:19:37;;;;;;;6.73;3.17;;;;;;;6.42;75.27;100880.47;5093711;28;20467;-77
2022/04/27 02:22:03;;;;;;;7.22;3.10;;;;;;;6.41;75.24;100888.66;5093606;28;20084;-76
2022/04/27 02:24:29;;;;;;;5.32;2.58;;;;;;;6.35;75.42;100890.16;5075881;28;20102;-76
2022/04/27 02:26:54;;;;;;;5.68;2.38;;;;;;;6.34;75.54;100882.28;5093990;28;20086;-77
2022/04/27 02:29:23;;;;;;;8.65;3.70;;;;;;;6.30;75.27;100884.44;5093558;28;20028;-76
2022/04/27 02:31:49;;;;;;;8.63;2.80;;;;;;;6.25;76.07;100890.31;5093497;28;20032;-77
2022/04/27 02:34:15;;;;;;;;;;;;;;;6.31;75.30;100891.47;5093845;28;20081;-76
2022/04/27 02:36:41;;;;;;;6.03;2.80;;;;;;;6.42;74.98;100893.00;5093541;28;19908;-76
2022/04/27 02:39:06;;;;;;;6.75;3.03;;;;;;;6.27;75.04;100890.13;5093307;28;20393;-76
2022/04/27 02:41:32;;;;;;;7.67;2.87;;;;;;;6.20;75.56;100894.50;5093169;28;20030;-77
2022/04/27 02:43:57;;;;;;;8.60;2.90;;;;;;;6.18;75.66;100902.69;5074850;28;20039;-77
2022/04/27 02:46:22;;;;;;;6.33;3.17;;;;;;;6.16;75.80;100898.50;5093469;28;20031;-76
2022/04/27 02:51:51;;;;;;;6.35;2.85;;;;;;;6.13;75.80;100902.31;5093261;28;20035;-76
2022/04/27 02:54:18;;;;;;;8.95;3.45;;;;;;;6.12;76.08;100900.66;5092527;28;20169;-76
2022/04/27 02:56:44;;;;;;;8.50;2.90;;;;;;;6.05;76.33;100902.31;5093087;28;20395;-76
2022/04/27 02:59:10;;;;;;;7.40;3.30;;;;;;;6.08;76.01;100911.88;5092822;28;20032;-77
2022/04/27 03:01:35;;;;;;;7.63;3.03;;;;;;;6.04;76.55;100907.84;5092729;28;20443;-77
2022/04/27 03:04:00;;;;;;;8.40;3.00;;;;;;;5.99;76.66;100918.19;5071418;28;20048;-77
2022/04/27 03:06:26;;;;;;;7.17;2.93;;;;;;;6.06;76.53;100908.50;5072996;28;20115;-77
2022/04/27 03:08:51;;;;;;;8.55;2.75;;;;;;;5.96;77.10;100903.28;5073514;28;20259;-77
2022/04/27 03:11:16;;;;;;;6.83;3.13;;;;;;;5.94;77.83;100905.28;5073776;28;20037;-77
2022/04/27 03:13:41;;;;;;;5.80;2.80;;;;;;;5.90;77.14;100912.81;5073709;28;20082;-77
2022/04/27 03:16:07;;;;;;;7.53;3.13;;;;;;;5.89;77.63;100907.63;5073789;28;20043;-77
2022/04/27 03:18:32;;;;;;;11.13;2.93;;;;;;;5.85;77.28;100912.44;5074116;28;20082;-76
2022/04/27 03:20:57;;;;;;;6.10;2.63;;;;;;;5.93;77.50;100911.63;5073886;28;20064;-77
2022/04/27 03:23:24;;;;;;;7.37;2.90;;;;;;;5.85;77.63;100920.47;5072425;28;20024;-77
2022/04/27 03:25:49;;;;;;;8.35;3.78;;;;;;;5.85;77.60;100915.09;5074391;28;20027;-77
2022/04/27 03:28:15;;;;;;;6.45;3.17;;;;;;;5.81;78.23;100911.06;5073825;28;20036;-77
2022/04/27 03:30:40;;;;;;;8.15;2.95;;;;;;;5.87;77.89;100914.94;5073022;28;20036;-77
2022/04/27 03:33:06;;;;;;;8.68;3.05;;;;;;;5.80;77.88;100913.91;5072343;28;20043;-77
2022/04/27 03:35:31;;;;;;;6.93;3.07;;;;;;;5.81;78.28;100915.59;5073777;28;20593;-77
2022/04/27 03:37:58;;;;;;;9.20;3.05;;;;;;;5.78;78.20;100921.25;5074207;28;20383;-77
2022/04/27 03:40:26;;;;;;;8.32;3.40;;;;;;;5.78;78.26;100923.94;5073996;28;20395;-78
2022/04/27 03:42:52;;;;;;;7.78;3.13;;;;;;;5.72;78.73;100925.44;5074260;28;20040;-77
2022/04/27 03:45:19;;;;;;;10.30;4.25;;;;;;;5.78;78.55;100922.09;5073572;28;20036;-77
2022/04/27 03:47:48;;;;;;;8.38;3.45;;;;;;;5.74;78.62;100926.09;5073861;28;20113;-77
2022/04/27 03:50:14;;;;;;;8.57;3.53;;;;;;;5.69;78.98;100933.78;5073435;28;20474;-77
2022/04/27 03:52:41;;;;;;;9.38;3.63;;;;;;;5.66;78.90;100926.06;5074347;28;20021;-77
2022/04/27 03:55:06;;;;;;;7.60;3.60;;;;;;;5.65;79.38;100929.72;5074295;28;20036;-78
2022/04/27 03:57:31;;;;;;;8.10;3.45;;;;;;;5.58;79.96;100928.69;5071659;28;20029;-77
2022/04/27 03:59:57;;;;;;;6.90;3.67;;;;;;;5.56;79.84;100941.38;5074418;28;20081;-77
2022/04/27 04:02:22;;;;;;;12.33;4.00;;;;;;;5.51;80.41;100938.38;5074998;28;20029;-78
2022/04/27 04:04:47;;;;;;;9.20;3.93;;;;;;;5.52;79.89;100938.22;5088493;28;20047;-78
2022/04/27 04:07:13;;;;;;;7.15;3.08;;;;;;;5.54;79.99;100933.53;5083022;28;20028;-78
2022/04/27 04:09:39;;;;;;;8.02;3.13;;;;;;;5.52;79.98;100932.84;5081509;28;20081;-78
2022/04/27 04:12:06;;;;;;;6.55;3.40;;;;;;;5.52;80.69;100937.38;5101819;28;20447;-78
2022/04/27 04:14:31;;;;;;;9.52;3.63;;;;;;;5.51;80.72;100941.88;5097007;28;20036;-78
2022/04/27 04:16:56;;;;;;;10.35;3.70;;;;;;;5.50;80.83;100936.69;5099321;28;20027;-78
2022/04/27 04:19:22;;;;;;;11.50;3.80;;;;;;;5.69;80.38;100933.78;5098860;28;20363;-76
2022/04/27 04:21:47;;;;;;;8.73;3.47;;;;;;;5.74;80.13;100942.13;5078070;28;20032;-76
2022/04/27 04:24:12;;;;;;;7.50;3.70;;;;;;;5.74;79.31;100936.78;5096871;28;20020;-78
2022/04/27 04:29:21;;;;;;;10.50;3.70;;;;;;;5.74;80.09;100950.16;5099945;28;20281;-78
2022/04/27 04:31:47;;;;;;;8.93;4.50;;;;;;;5.71;79.97;100955.84;5100529;28;20028;-78
2022/04/27 04:34:12;;;;;;;8.45;3.65;;;;;;;5.71;79.97;100957.69;5099721;28;20075;-78
2022/04/27 04:36:37;;;;;;;8.03;3.63;;;;;;;5.61;80.30;100963.13;5099184;28;20024;-77
2022/04/27 04:39:03;;;;;;;10.07;3.87;;;;;;;5.56;80.76;100979.63;5080300;28;20051;-78
2022/04/27 04:41:28;;;;;;;8.87;4.20;;;;;;;5.53;80.59;100971.13;5101125;28;20043;-78
2022/04/27 04:43:53;;;;;;;8.70;3.67;;;;;;;5.57;80.77;100980.47;5098818;28;20035;-78
2022/04/27 04:46:18;;;;;;;9.83;3.87;;;;;;;5.48;81.20;100978.78;5096375;28;20262;-76
2022/04/27 04:48:44;;;;;;;8.03;3.73;;;;;;;5.39;81.10;100975.19;5096412;28;20024;-77
2022/04/27 04:51:09;;;;;;;9.93;4.07;;;;;;;5.44;81.53;100988.09;5077843;28;20032;-76
2022/04/27 04:53:34;;;;;;;10.85;3.92;;;;;;;5.43;81.67;100986.41;5095617;28;20020;-76
2022/04/27 04:56:00;;;;;;;8.07;3.40;;;;;;;5.50;81.68;100990.13;5095704;28;20028;-76
2022/04/27 04:58:25;;;;;;;9.37;4.90;;;;;;;5.48;81.25;100987.63;5097282;28;20428;-76
2022/04/27 05:00:50;;;;;;;10.20;3.63;;;;;;;5.61;81.27;100992.53;5096237;28;20039;-76
2022/04/27 05:03:16;;;;;;;11.17;4.23;;;;;;;5.60;81.29;101001.53;5095845;28;20137;-78
2022/04/27 05:05:42;;;;;;;9.52;3.55;;;;;;;5.57;80.94;101002.69;5098124;28;20084;-78
2022/04/27 05:08:09;;;;;;;12.40;4.38;;;;;;;5.55;81.29;101006.56;5081147;28;20149;-78
2022/04/27 05:10:34;;;;;;;9.48;4.32;;;;;;;5.61;81.33;101016.59;5098082;28;20101;-77
2022/04/27 05:13:00;;;;;;;10.23;4.53;;;;;;;5.59;81.50;101021.25;5097255;28;20451;-77
2022/04/27 05:15:25;;;;;;;10.00;4.50;;;;;;;5.53;81.65;101021.91;5097174;28;20039;-77
2022/04/27 05:17:50;;;;;;;10.90;4.63;;;;;;;5.51;81.64;101022.06;5097874;28;20073;-77
2022/04/27 05:20:16;;;;;;;11.63;4.57;;;;;;;5.53;81.53;101019.22;5096700;28;20107;-78
2022/04/27 05:22:41;;;;;;;12.17;4.40;;;;;;;5.58;81.26;101023.09;5098135;28;20415;-77
2022/04/27 05:25:08;;;;;;;8.50;3.80;;;;;;;5.63;81.07;101027.97;5096844;28;20032;-76
2022/04/27 05:27:37;;;;;;;12.63;4.90;;;;;;;5.73;80.99;101028.69;5095257;28;20054;-77
2022/04/27 05:32:49;;;;;;;13.85;4.38;;;;;;;5.96;80.77;101026.34;5095397;28;20066;-77
2022/04/27 05:35:14;;;;;;;13.63;4.90;;;;;;;6.07;79.92;101031.41;5096183;28;20024;-79
2022/04/27 05:37:40;;;;;;;8.35;4.30;;;;;;;6.00;79.35;101038.41;5098016;28;20046;-77
2022/04/27 05:40:07;;;;;;;9.27;4.65;;;;;;;5.95;80.34;101039.88;5097510;28;20309;-77
2022/04/27 05:42:33;;;;;;;11.05;4.88;;;;;;;5.95;80.11;101048.72;5079323;28;20028;-77
2022/04/27 05:44:59;;;;;;;10.25;4.35;;;;;;;6.03;79.67;101038.06;5078843;28;20032;-77
2022/04/27 05:47:25;;;;;;;11.50;4.18;;;;;;;6.10;79.27;101044.44;5079087;28;20118;-77
2022/04/27 05:49:50;;;;;;;;;;;;;;;6.01;80.24;101042.75;5096708;28;20035;-77
2022/04/27 05:52:16;;;;;;;9.32;3.95;;;;;;;6.17;79.68;101048.16;5096527;28;20070;-77
2022/04/27 05:54:42;;;;;;;9.82;4.88;;;;;;;6.28;78.82;101058.56;5096763;28;20114;-77
2022/04/27 05:57:07;;;;;;;13.97;5.60;;;;;;;6.28;79.39;101057.72;5097133;28;20113;-77
2022/04/27 05:59:32;;;;;;;9.03;4.23;;;;;;;6.36;79.14;101051.59;5097459;28;20403;-77
2022/04/27 06:01:58;;;;;;;10.75;5.13;;;;;;;6.38;79.33;101055.78;5096165;28;20266;-77
2022/04/27 06:04:25;;;;;;;15.25;5.20;;;;;;;6.52;78.61;101055.16;5096131;28;20071;-77
2022/04/27 06:06:50;;;;;;;10.80;5.03;;;;;;;6.71;77.96;101056.69;5095679;28;20470;-76
2022/04/27 06:09:15;;;;;;;16.87;6.83;;;;;;;6.82;77.71;101060.88;5094492;28;20024;-77
2022/04/27 06:11:41;;;;;;;9.00;4.50;;;;;;;6.89;77.35;101062.75;5095638;28;20024;-77
2022/04/27 06:14:06;;;;;;;9.70;4.60;;;;;;;6.91;76.53;101065.28;5095046;28;20728;-78
2022/04/27 06:16:33;;;;;;;9.80;4.87;;;;;;;7.02;76.42;101072.97;5095249;28;20036;-77
2022/04/27 06:18:58;;;;;;;10.85;5.20;;;;;;;7.07;76.25;101069.81;5095556;28;20118;-77
2022/04/27 06:21:23;;;;;;;7.63;4.03;;;;;;;7.23;75.62;101069.81;5095146;28;20070;-77
2022/04/27 06:23:49;;;;;;;8.23;4.33;;;;;;;7.29;74.37;101070.00;5095126;28;20643;-77
2022/04/27 06:26:14;;;;;;;12.60;5.10;;;;;;;7.31;74.01;101067.97;5095580;28;20451;-77
2022/04/27 06:28:40;;;;;;;13.57;5.72;;;;;;;7.40;74.75;101062.59;5094550;28;20047;-77
2022/04/27 06:31:06;;;;;;;;;;;;;;;7.39;74.21;101064.44;5077581;28;20390;-78
2022/04/27 06:33:31;;;;;;;8.40;3.90;;;;;;;7.48;73.66;101068.81;5094862;28;19912;-78
2022/04/27 06:35:57;;;;;;;8.07;3.78;;;;;;;7.48;72.45;101065.28;5095276;28;20112;-76
2022/04/27 06:38:22;;;;;;;9.90;3.50;;;;;;;7.73;72.60;101066.91;5076920;28;20113;-76
2022/04/27 06:40:47;;;;;;;8.03;3.43;;;;;;;8.10;70.78;101073.53;5094731;28;20747;-77
2022/04/27 06:43:13;;;;;;;10.88;4.20;;;;;;;8.47;69.46;101071.06;5101984;28;20238;-76
2022/04/27 06:45:38;;;;;;;8.97;4.27;;;;;;;8.81;68.43;101078.75;5105827;28;20032;-77
2022/04/27 06:48:04;;;;;;;7.03;3.63;;;;;;;9.38;66.73;101073.81;5106803;28;20028;-76
2022/04/27 06:50:29;;;;;;;7.05;3.28;;;;;;;9.54;65.64;101077.38;5099162;28;20051;-76
2022/04/27 06:52:59;;;;;;;7.10;3.20;;;;;;;9.31;66.04;101074.72;5078182;28;20039;-76
2022/04/27 06:55:25;;;;;;;8.48;3.85;;;;;;;9.28;65.33;101075.09;5095359;28;20029;-77
2022/04/27 06:57:50;;;;;;;6.32;3.20;;;;;;;9.28;66.16;101080.47;5094893;28;20032;-77
2022/04/27 07:00:15;;;;;;;5.90;2.77;;;;;;;9.62;64.09;101086.22;5096706;28;20484;-78
2022/04/27 07:02:41;;;;;;;7.90;3.37;;;;;;;9.35;65.04;101089.47;5097278;28;20254;-78
2022/04/27 07:05:12;;;;;;;6.90;3.13;;;;;;;9.32;65.41;101089.81;5096121;28;20127;-78
2022/04/27 07:07:37;;;;;;;8.40;3.67;;;;;;;9.10;65.66;101094.22;5094509;28;20100;-77
2022/04/27 07:10:03;;;;;;;6.40;2.97;;;;;;;8.92;66.37;101086.44;5075891;28;20028;-77
2022/04/27 07:12:28;;;;;;;7.72;2.80;;;;;;;9.17;66.03;101086.25;5094860;28;20542;-76
2022/04/27 07:14:54;;;;;;;6.70;3.07;;;;;;;9.16;66.24;101096.16;5095998;28;20443;-77
2022/04/27 07:17:19;;;;;;;8.25;3.50;;;;;;;9.11;66.04;101095.03;5079628;28;20281;-77
2022/04/27 07:19:45;;;;;;;7.57;3.13;;;;;;;9.25;65.29;101088.88;5094517;28;20036;-77
2022/04/27 07:22:11;;;;;;;7.75;3.42;;;;;;;9.34;65.34;101095.84;5093149;28;20477;-78
2022/04/27 07:24:39;;;;;;;;;;;;;;;9.39;65.34;101099.69;5094160;28;20036;-77
2022/04/27 07:27:05;;;;;;;8.43;3.42;;;;;;;9.47;64.88;101096.09;5096102;28;19915;-77
2022/04/27 07:29:31;;;;;;;7.70;3.15;;;;;;;9.38;64.00;101098.00;5076112;28;20032;-77
2022/04/27 07:31:56;;;;;;;10.15;4.00;;;;;;;9.52;63.91;101103.59;5094859;28;20387;-77
2022/04/27 07:34:22;;;;;;;13.47;3.60;;;;;;;9.52;65.24;101106.28;5093748;28;20432;-77
2022/04/27 07:36:48;;;;;;;;;;;;;;;9.83;64.38;101109.72;5093866;28;20042;-78
2022/04/27 07:39:13;;;;;;;5.97;2.70;;;;;;;9.71;62.48;101105.78;5076235;28;19908;-77
2022/04/27 07:41:38;;;;;;;8.20;3.63;;;;;;;9.71;63.13;101108.47;5096475;28;20028;-75
2022/04/27 07:44:06;;;;;;;7.80;3.33;;;;;;;10.04;62.77;101108.97;5097301;28;20383;-75
2022/04/27 07:46:31;;;;;;;9.20;3.38;;;;;;;9.97;60.72;101110.75;5097489;28;20036;-74
2022/04/27 07:48:57;;;;;;;8.43;3.72;;;;;;;10.07;61.09;101109.47;5097706;28;20082;-74
2022/04/27 07:51:22;;;;;;;9.87;3.50;;;;;;;10.27;59.71;101111.63;5097021;28;20798;-76
2022/04/27 07:53:47;;;;;;;7.27;2.70;;;;;;;9.89;59.73;101116.22;5097018;28;20523;-74
2022/04/27 07:56:13;;;;;;;5.13;2.22;;;;;;;9.78;59.81;101111.28;5078547;28;20118;-74
2022/04/27 07:58:38;;;;;;;7.78;2.63;;;;;;;9.95;58.65;101124.41;5096379;28;20390;-75
2022/04/27 08:01:04;;;;;;;3.70;2.00;;;;;;;10.11;58.79;101115.31;5096573;28;20036;-75
2022/04/27 08:03:30;;;;;;;8.15;3.45;;;;;;;10.09;58.46;101123.56;5095659;28;20036;-74
2022/04/27 08:05:55;;;;;;;5.40;2.73;;;;;;;10.45;57.28;101128.25;5078292;28;20035;-74
2022/04/27 08:08:21;;;;;;;5.07;3.13;;;;;;;10.53;57.45;101122.78;5096158;28;20024;-75
2022/04/27 08:10:47;;;;;;;5.75;2.08;;;;;;;10.82;54.32;101126.44;5096536;28;20375;-74
2022/04/27 08:13:12;;;;;;;4.03;2.10;;;;;;;10.58;54.72;101125.72;5095776;28;20040;-75
2022/04/27 08:15:38;;;;;;;7.03;2.50;;;;;;;10.79;55.70;101130.34;5095812;28;20111;-75
2022/04/27 08:18:08;;;;;;;5.05;2.25;;;;;;;10.76;55.14;101126.16;5096034;28;20024;-75
2022/04/27 08:23:23;;;;;;;4.28;1.95;;;;;;;10.91;55.84;101131.53;5095523;28;20028;-75
2022/04/27 08:25:49;;;;;;;5.80;2.13;;;;;;;10.88;53.88;101134.63;5095600;28;20382;-75
2022/04/27 08:28:16;;;;;;;5.07;2.05;;;;;;;10.81;53.23;101132.84;5095628;28;20518;-74
2022/04/27 08:30:44;;;;;;;5.88;2.22;;;;;;;10.73;54.40;101136.50;5095759;28;20473;-74
2022/04/27 08:33:09;;;;;;;9.02;2.72;;;;;;;10.70;55.13;101132.31;5095888;28;20028;-74
2022/04/27 08:35:36;;;;;;;5.55;2.50;;;;;;;11.06;54.64;101131.50;5096101;28;20482;-75
2022/04/27 08:38:03;;;;;;;5.22;2.70;;;;;;;11.10;54.76;101136.31;5095760;28;20032;-74
2022/04/27 08:40:29;;;;;;;6.22;2.63;;;;;;;11.08;53.23;101140.25;5095611;28;20428;-75
2022/04/27 08:42:56;;;;;;;8.93;2.80;;;;;;;10.86;54.55;101141.22;5095973;28;20031;-75
2022/04/27 08:45:22;;;;;;;6.82;2.65;;;;;;;11.00;54.25;101140.34;5095048;28;20082;-75
2022/04/27 08:47:49;;;;;;;4.90;2.47;;;;;;;11.31;53.54;101140.03;5095267;28;20478;-75
2022/04/27 08:50:18;;;;;;;6.07;2.83;;;;;;;11.48;51.74;101141.47;5095132;28;20035;-75
2022/04/27 08:52:44;;;;;;;6.93;2.50;;;;;;;11.70;52.29;101145.81;5094561;28;20103;-75
2022/04/27 08:55:11;;;;;;;6.82;2.60;;;;;;;11.60;50.71;101142.63;5077164;28;20028;-75
2022/04/27 08:57:37;;;;;;;6.30;2.88;;;;;;;11.86;51.07;101152.00;5095305;28;20032;-75
2022/04/27 09:00:05;;;;;;;7.05;2.47;;;;;;;11.91;51.19;101149.56;5095250;28;20031;-73
2022/04/27 09:02:31;;;;;;;5.80;2.60;;;;;;;11.70;51.70;101144.97;5076939;28;20421;-74
2022/04/27 09:05:10;;;;;;;6.40;2.58;;;;;;;11.87;52.35;101142.88;5094868;28;20048;-73
2022/04/27 09:07:43;;;;;;;5.15;2.58;;;;;;;11.89;51.36;101147.03;5077052;28;20119;-74
2022/04/27 09:10:10;;;;;;;5.82;2.75;;;;;;;11.89;50.67;101151.63;5094729;28;20475;-74
2022/04/27 09:12:49;;;;;;;8.20;2.92;;;;;;;12.03;50.39;101147.97;5094496;28;20061;-73
2022/04/27 09:15:17;;;;;;;5.68;2.42;;;;;;;12.11;51.16;101151.38;5094376;28;20528;-74
2022/04/27 09:23:26;;;;;;;7.85;2.95;;;;;;;12.41;49.38;101151.97;5094590;28;20039;-73
2022/04/27 09:25:55;;;;;;;7.88;2.58;;;;;;;12.62;49.47;101163.72;5094482;28;20032;-74
2022/04/27 09:28:26;;;;;;;4.40;1.98;;;;;;;12.45;49.29;101157.81;5076010;28;20492;-73
2022/04/27 09:30:52;;;;;;;5.65;2.50;;;;;;;12.56;50.27;101151.84;5094266;28;20036;-72
2022/04/27 09:33:32;;;;;;;5.63;2.55;;;;;;;12.66;50.45;101160.44;5093854;28;20032;-72
2022/04/27 09:35:58;;;;;;;5.95;2.55;;;;;;;12.89;49.08;101156.59;5093770;28;20040;-73
2022/04/27 09:38:23;;;;;;;6.30;2.83;;;;;;;12.82;49.70;101154.69;5093782;28;20387;-73
2022/04/27 09:40:52;;;;;;;6.88;2.78;;;;;;;12.70;48.64;101159.00;5094207;28;20036;-73
2022/04/27 09:43:49;;;;;;;5.68;2.38;;;;;;;12.81;48.85;101161.13;5076178;28;20032;-73
2022/04/27 09:46:17;;;;;;;5.05;2.35;;;;;;;12.85;49.03;101158.84;5075694;28;20127;-73
2022/04/27 09:48:46;;;;;;;4.50;2.33;;;;;;;12.91;49.27;101155.31;5094099;28;20020;-72
2022/04/27 09:51:15;;;;;;;8.20;2.33;;;;;;;12.95;48.30;101164.72;5093414;28;20086;-74
2022/04/27 09:53:47;;;;;;;9.07;3.00;;;;;;;13.15;48.30;101162.09;5093808;28;20489;-74
2022/04/27 09:56:12;;;;;;;7.22;2.38;;;;;;;13.18;47.52;101153.59;5075743;28;20039;-74
2022/04/27 09:58:43;;;;;;;4.85;2.38;;;;;;;13.20;47.41;101156.94;5094276;28;20103;-75
2022/04/27 10:01:11;;;;;;;4.20;2.17;;;;;;;13.49;47.67;101151.16;5093808;28;20032;-74
2022/04/27 10:03:39;;;;;;;5.53;2.67;;;;;;;13.50;45.86;101157.41;5093566;28;20045;-74
2022/04/27 10:06:04;;;;;;;6.93;2.90;;;;;;;13.32;46.79;101152.56;5093637;28;20020;-74
2022/04/27 10:08:32;;;;;;;7.88;2.67;;;;;;;13.35;47.10;101154.03;5094042;28;20043;-74
2022/04/27 10:10:58;;;;;;;6.60;3.25;;;;;;;13.55;46.57;101152.19;5075931;28;20477;-74
2022/04/27 10:13:25;;;;;;;5.07;2.40;;;;;;;13.58;47.16;101148.25;5093728;28;20039;-74
2022/04/27 10:15:51;;;;;;;5.45;2.72;;;;;;;13.67;45.91;101136.16;5093892;28;20038;-74
2022/04/27 10:18:18;;;;;;;6.38;2.70;;;;;;;13.86;46.31;101138.88;5075755;28;20026;-74
2022/04/27 10:20:45;;;;;;;4.93;2.40;;;;;;;13.74;46.47;101139.72;5093737;28;20046;-74
2022/04/27 10:23:46;;;;;;;5.10;2.45;;;;;;;13.86;45.05;101138.03;5093934;28;20032;-74
2022/04/27 10:26:27;;;;;;;6.53;3.35;;;;;;;13.95;45.37;101134.09;5093435;28;20031;-74
2022/04/27 10:28:59;;;;;;;6.32;2.95;;;;;;;13.60;45.80;101129.94;5075610;28;20028;-74
2022/04/27 10:31:40;;;;;;;5.25;2.42;;;;;;;13.86;44.26;101133.47;5093137;28;20352;-73
2022/04/27 10:34:22;;;;;;;5.65;2.63;;;;;;;13.93;44.82;101129.91;5076091;28;20059;-74
2022/04/27 10:36:49;;;;;;;6.32;2.63;;;;;;;14.13;44.79;101138.88;5093748;28;20032;-75
2022/04/27 10:39:16;;;;;;;6.85;3.22;;;;;;;14.10;44.51;101136.56;5093402;28;20378;-75
2022/04/27 10:41:48;;;;;;;7.63;3.58;;;;;;;14.32;45.14;101127.16;5093422;28;20023;-75
2022/04/27 10:44:14;;;;;;;5.57;2.95;;;;;;;14.52;43.58;101138.78;5075301;28;20035;-75
2022/04/27 10:46:43;;;;;;;6.32;2.92;;;;;;;14.06;43.70;101138.03;5093343;28;20036;-74
2022/04/27 10:49:28;;;;;;;7.05;2.97;;;;;;;14.16;45.09;101141.97;5093428;28;20040;-74
2022/04/27 10:52:01;;;;;;;6.65;2.60;;;;;;;14.37;44.80;101132.75;5093797;28;20031;-74
2022/04/27 10:54:28;;;;;;;7.28;3.47;;;;;;;14.28;44.20;101131.31;5093401;28;20063;-74
2022/04/27 10:57:15;;;;;;;6.63;3.20;;;;;;;14.37;43.76;101137.34;5075402;28;20115;-74
2022/04/27 11:00:05;;;;;;;10.02;3.42;;;;;;;14.72;43.94;101143.31;5093169;28;20109;-74
2022/04/27 11:02:35;;;;;;;6.32;3.40;;;;;;;14.33;43.89;101139.63;5075560;28;20036;-74
2022/04/27 11:05:21;;;;;;;6.25;2.72;;;;;;;14.47;44.72;101132.34;5092966;28;20513;-74
2022/04/27 11:08:21;;;;;;;6.30;3.20;;;;;;;14.67;43.21;101135.84;5092426;28;20182;-74
2022/04/27 11:10:47;;;;;;;6.00;2.63;;;;;;;14.83;43.48;101129.94;5092742;28;20497;-75
2022/04/27 11:13:13;;;;;;;6.45;3.55;;;;;;;15.01;42.26;101126.50;5092966;28;20052;-75
2022/04/27 11:15:38;;;;;;;6.85;2.80;;;;;;;14.62;43.05;101132.09;5096842;28;20497;-75
2022/04/27 11:18:04;;;;;;;5.95;3.10;;;;;;;14.49;43.27;101138.41;5097537;28;20028;-74
2022/04/27 11:20:37;;;;;;;;;;;;;;;14.57;44.47;101128.13;5098026;28;20347;-75
2022/04/27 11:23:07;;;;;;;5.85;3.05;;;;;;;14.72;43.20;101132.47;5079427;28;19908;-75
2022/04/27 11:25:39;;;;;;;9.63;3.30;;;;;;;14.77;43.23;101132.66;5097641;28;20036;-74
2022/04/27 11:28:06;;;;;;;8.73;3.38;;;;;;;14.77;43.66;101128.06;5097265;28;20387;-75
2022/04/27 11:30:32;;;;;;;6.43;2.83;;;;;;;14.86;44.24;101134.94;5097052;28;20028;-75
2022/04/27 11:32:58;;;;;;;;;;;;;;;15.01;42.47;101131.09;5097644;28;20516;-75
2022/04/27 11:35:25;;;;;;;5.75;2.92;;;;;;;15.44;42.70;101137.50;5097150;28;20031;-76
2022/04/27 11:37:54;;;;;;;5.03;2.45;;;;;;;15.59;43.18;101127.19;5096836;28;20028;-74
2022/04/27 11:40:25;;;;;;;6.88;3.20;;;;;;;15.78;41.38;101128.06;5097373;28;20047;-75
2022/04/27 11:42:51;;;;;;;6.03;3.30;;;;;;;15.42;41.42;101128.75;5079201;28;20407;-75
2022/04/27 11:45:26;;;;;;;6.35;2.85;;;;;;;15.75;43.04;101125.00;5096807;28;20036;-75
2022/04/27 11:48:04;;;;;;;7.57;3.67;;;;;;;15.66;40.41;101132.56;5079163;28;20466;-76
2022/04/27 11:50:30;;;;;;;7.25;3.22;;;;;;;15.88;41.70;101122.16;5079068;28;20474;-76